Strona główna
METAR-TAF:

METAR-TAF

Lotnisko :

Sidney-Richland Municipal Airport

Sidney, Montana, Stany Zjednoczone

Szerokość geograficzna: 47-42N, Długość geograficzna: 104-12W, wysokość: 605 m

Aktualna obserwacja pogody

Raport powstał 12 minut temu, godzina 09:56 UTC
Wiatr 4 kt od południowo-południowy zachód
Temperatura -3°C
Wilgotność 63%
Ciśnienie 1013 hPa
Widzialność: 16.1 km
bezchmurnie

METAR: KSDY 100956Z AUTO 21004KT 10SM CLR M03/M09 A2990 RMK AO2 SLP521 T10331089 FZRANO

czas: 04:08 (10:08 UTC)

Prognoza

Raport powstał 4 godziny i 33 minut temu, godzina 05:35 UTC
Prognoza ważna od 10 godzina 06 UTC do 11 godzina 06 UTC
Wiatr 4 kt z kierunków zmiennych
Widzialność: 10 km
Rozproszone chmury na wysokości 15000 ft
Od 10 godzina 1900 UTC
Wiatr 8 kt od północ
Widzialność: 10 km
Przerywane chmury na wysokości 10000 ft
Od 11 godzina 0100 UTC
Wiatr 9 kt od północ
Widzialność: 10 km
Przerywane chmury na wysokości 4000 ft

TAF: KSDY 100535Z 1006/1106 VRB04KT P6SM SCT150 FM101900 35008KT P6SM BKN100 FM110100 36009KT P6SM BKN040

Obserwacja i prognoza pogody dla ponad 4000 lotnisk (raport METAR i TAF).

Dostępne stacje oznaczono żółtymi i czerwonymi punktami na mapie.

Najedź kursorem aby zobaczyć nazwę stacji.

Kliknij aby zobaczyć obserwacje i prognozy pogody.

Aby zmienić mapę: kliknij na zielony przycisk z czarnym krzyżykiem, aby powiększyć; na zielony przycisk z myślnikiem, aby pomniejszyć; na zielone strzałki, aby przejść do map sąsiednich.


METAR-TAF: